Rain From: 21-07-2018 02:00 Until: 16:00 warning for: Rain Level: Yellow info button
suomi:
Sadevaroitus: Aamuyöstä alkaen voi sataa rankasti, yli 20 mm tunnissa.

svenska:
Nederbördsvarning: Från och med efternatten kan det förekomma synnerligen riklig nederbörd, mer än 20 mm i timmen.

english:
Heavy rain warning: From the early morning on heavy rain of more than 20 mm per hour can be expected. 

Forest fire From: 20-07-2018 23:00 Until: 21-07-2018 11:00 warning for: Forest fire Level: Yellow info button
suomi:
Metsäpalovaroitus on voimassa.

svenska:
Varning för skogsbrand gäller.

english:
A forest fire warning is in force. 


Thunder radar more information blitzortung!


Löydät sääaseman tiedot myös:

European Weather Network

Finland Weather Exchange

Weather Underground

AWEKAS



Weather Underground säähistoriasivu

Päivittäin yhteenveto Tou 1, 2017 Yksiköt:  Englantilaiset    Metriset   Molemmat
« Edellinen Päivä
Seuraava Päivä »
Päivittäin Viikoittain Kuukausittain Vuosittain Mukautettu
  Korkea: Matala: Keskiarvo:
Lämpötila: TemperatureC °F -1.3 °F 4.4 °F
Kastepiste: DewpointC °F -3.1 °F -1.3 °F
Kosteus: Humidity % 43 % 69 %
Tuulen nopeus: WindSpeedKMH mph 0.0 mph 5.2 mph
Tuulenpuuska: WindSpeedGustKMH mph - -
Tuuli:- - SW
Ilmanpaine: PressurehPa in 1016.8 in -
Sade: 0.3 in    
Historical Graphs
 
 
Taulukkotiedot Tou 1, 2017
Aika Lämpötila Kastepiste Ilmanpaine Tuuli Tuulen nopeus Tuulenpuuska Kosteus Sademäärä (tunneittain)
TemperatureC °F DewpointC °F PressurehPa in Calm     Humidity % HourlyPrecipMM in
00:00 0.3 °F -1.3 °F 1016.8 in SSW 6.4 mph 12.9 mph 89 % 0.0 in
00:15 0.3 °F -1.2 °F 1016.8 in SSW 4.8 mph 14.5 mph 90 % 0.0 in
00:30 0.3 °F -1.1 °F 1016.8 in SSW 3.2 mph 11.3 mph 90 % 0.0 in
00:45 0.4 °F -1.1 °F 1016.8 in SSW 4.8 mph 9.7 mph 90 % 0.0 in
01:00 0.4 °F -1.0 °F 1016.8 in SSW 6.4 mph 16.1 mph 90 % 0.0 in
01:15 0.4 °F -1.0 °F 1016.8 in SSW 6.4 mph 12.9 mph 90 % 0.0 in
01:30 0.3 °F -1.1 °F 1016.8 in SSW 4.8 mph 11.3 mph 90 % 0.0 in
01:45 0.2 °F -1.1 °F 1016.8 in SSW 4.8 mph 8.0 mph 91 % 0.0 in
02:00 0.2 °F -1.1 °F 1016.8 in SW 4.8 mph 11.3 mph 91 % 0.0 in
02:15 0.2 °F -1.1 °F 1016.8 in SSW 4.8 mph 11.3 mph 91 % 0.0 in
02:30 0.2 °F -1.1 °F 1016.8 in SSW 6.4 mph 11.3 mph 91 % 0.0 in
02:45 0.1 °F -1.2 °F 1016.8 in SW 4.8 mph 11.3 mph 91 % 0.0 in
03:00 -0.1 °F -1.3 °F 1017.2 in SSW 4.8 mph 11.3 mph 91 % 0.0 in
03:15 -0.2 °F -1.5 °F 1017.2 in SSW 4.8 mph 9.7 mph 91 % 0.0 in
03:30 -0.3 °F -1.4 °F 1017.2 in SSW 4.8 mph 8.0 mph 92 % 0.0 in
03:45 -0.4 °F -1.6 °F 1017.5 in SW 4.8 mph 9.7 mph 92 % 0.0 in
04:00 -0.6 °F -1.7 °F 1017.8 in SSW 4.8 mph 8.0 mph 92 % 0.0 in
04:15 -0.7 °F -1.7 °F 1018.2 in SW 4.8 mph 8.0 mph 93 % 0.0 in
04:30 -0.8 °F -1.8 °F 1018.2 in SSW 4.8 mph 9.7 mph 93 % 0.0 in
04:45 -0.9 °F -1.9 °F 1018.2 in SSW 4.8 mph 11.3 mph 93 % 0.0 in
05:00 -1.0 °F -1.8 °F 1018.5 in SSW 3.2 mph 8.0 mph 94 % 0.0 in
05:15 -1.1 °F -2.0 °F 1018.5 in SW 3.2 mph 6.4 mph 94 % 0.0 in
05:30 -1.2 °F -2.1 °F 1018.5 in SW 3.2 mph 6.4 mph 94 % 0.0 in
05:45 -1.3 °F -2.1 °F 1018.8 in SSW 3.2 mph 6.4 mph 94 % 0.0 in
06:00 -1.3 °F -2.0 °F 1018.8 in SSW 3.2 mph 8.0 mph 95 % 0.0 in
06:15 -1.2 °F -1.9 °F 1019.2 in SSW 3.2 mph 9.7 mph 95 % 0.0 in
06:30 -1.1 °F -1.8 °F 1019.2 in SW 4.8 mph 11.3 mph 95 % 0.0 in
06:45 -0.8 °F -1.5 °F 1019.5 in SSW 4.8 mph 9.7 mph 95 % 0.0 in
07:00 -0.6 °F -1.4 °F 1019.5 in SSW 6.4 mph 12.9 mph 94 % 0.0 in
07:15 -0.2 °F -1.2 °F 1019.9 in SSW 6.4 mph 16.1 mph 93 % 0.0 in
07:30 0.2 °F -0.9 °F 1019.9 in SSW 6.4 mph 11.3 mph 92 % 0.0 in
07:45 0.7 °F -0.7 °F 1019.9 in SSW 6.4 mph 12.9 mph 90 % 0.0 in
08:00 1.3 °F -0.4 °F 1020.2 in SSW 4.8 mph 14.5 mph 88 % 0.0 in
08:15 1.8 °F -0.4 °F 1020.2 in SSW 6.4 mph 12.9 mph 85 % 0.0 in
08:30 2.4 °F -0.2 °F 1020.5 in SSW 6.4 mph 14.5 mph 83 % 0.0 in
08:45 2.9 °F -0.3 °F 1020.5 in SW 4.8 mph 17.7 mph 79 % 0.0 in
09:00 3.4 °F -0.2 °F 1020.9 in SSW 4.8 mph 11.3 mph 77 % 0.0 in
09:15 4.0 °F -0.1 °F 1020.9 in SSW 4.8 mph 11.3 mph 75 % 0.0 in
09:30 4.3 °F -0.1 °F 1021.2 in SW 4.8 mph 11.3 mph 73 % 0.0 in
09:45 4.7 °F -0.1 °F 1021.6 in SW 4.8 mph 14.5 mph 71 % 0.0 in
10:00 5.1 °F 0.0 °F 1021.6 in SSW 4.8 mph 14.5 mph 70 % 0.0 in
10:15 5.3 °F -0.8 °F 1021.9 in SSW 6.4 mph 16.1 mph 65 % 0.0 in
10:30 5.7 °F -1.1 °F 1021.9 in SW 6.4 mph 19.3 mph 62 % 0.0 in
10:45 6.1 °F -1.6 °F 1022.2 in SW 6.4 mph 14.5 mph 58 % 0.0 in
11:00 6.1 °F -1.8 °F 1022.2 in SW 8.0 mph 19.3 mph 57 % 0.0 in
11:15 6.6 °F -1.9 °F 1022.2 in WSW 6.4 mph 22.5 mph 55 % 0.0 in
11:30 6.8 °F -1.1 °F 1022.6 in SW 4.8 mph 17.7 mph 57 % 0.0 in
11:45 6.6 °F -1.1 °F 1022.6 in SSW 6.4 mph 17.7 mph 58 % 0.0 in
12:00 6.8 °F -1.6 °F 1022.9 in SW 8.0 mph 24.1 mph 55 % 0.3 in
12:15 7.2 °F -1.3 °F 1022.9 in SW 4.8 mph 17.7 mph 55 % 0.3 in
12:30 7.1 °F -1.6 °F 1022.9 in SW 8.0 mph 19.3 mph 54 % 0.3 in
12:45 7.8 °F -1.2 °F 1023.2 in WSW 4.8 mph 16.1 mph 53 % 0.3 in
13:00 7.9 °F -1.6 °F 1023.2 in SW 6.4 mph 20.9 mph 51 % 0.0 in
13:15 7.8 °F -2.0 °F 1023.2 in SW 9.7 mph 24.1 mph 50 % 0.0 in
13:30 8.2 °F -2.2 °F 1023.2 in SW 8.0 mph 14.5 mph 48 % 0.0 in
13:45 8.6 °F -2.7 °F 1023.2 in SW 6.4 mph 17.7 mph 45 % 0.0 in
14:00 8.8 °F -3.1 °F 1023.6 in SW 8.0 mph 22.5 mph 43 % 0.0 in
14:15 8.8 °F -1.9 °F 1023.6 in SW 6.4 mph 14.5 mph 47 % 0.0 in
14:30 8.9 °F -2.7 °F 1023.6 in SW 8.0 mph 19.3 mph 44 % 0.0 in
14:45 8.9 °F -2.4 °F 1023.9 in SW 6.4 mph 16.1 mph 45 % 0.0 in
15:00 8.7 °F -2.6 °F 1023.9 in WSW 8.0 mph 17.7 mph 45 % 0.0 in
15:15 8.7 °F -2.6 °F 1023.9 in WSW 8.0 mph 24.1 mph 45 % 0.0 in
15:30 8.6 °F -1.8 °F 1023.9 in WSW 9.7 mph 22.5 mph 48 % 0.0 in
15:45 8.7 °F -2.3 °F 1023.9 in WSW 8.0 mph 29.0 mph 46 % 0.0 in
16:00 9.1 °F -2.2 °F 1023.9 in WSW 8.0 mph 22.5 mph 45 % 0.0 in
16:15 9.2 °F -2.5 °F 1023.9 in WSW 6.4 mph 22.5 mph 44 % 0.0 in
16:30 9.3 °F -2.6 °F 1023.9 in SSW 8.0 mph 25.7 mph 43 % 0.0 in
16:45 9.4 °F -1.9 °F 1023.9 in West 4.8 mph 14.5 mph 45 % 0.0 in
17:00 9.6 °F -1.5 °F 1023.9 in WSW 4.8 mph 14.5 mph 46 % 0.0 in
17:15 9.3 °F -1.7 °F 1023.9 in WNW 8.0 mph 22.5 mph 46 % 0.0 in
17:30 9.5 °F -1.9 °F 1024.3 in WSW 6.4 mph 20.9 mph 45 % 0.0 in
17:45 9.8 °F -1.6 °F 1023.9 in SW 3.2 mph 12.9 mph 45 % 0.0 in
18:00 9.6 °F -1.2 °F 1024.3 in SW 4.8 mph 14.5 mph 47 % 0.0 in
18:15 9.4 °F -1.0 °F 1023.9 in SW 6.4 mph 22.5 mph 48 % 0.0 in
18:30 9.3 °F -1.1 °F 1023.9 in SSW 8.0 mph 20.9 mph 48 % 0.0 in
18:45 9.2 °F -1.3 °F 1023.9 in SW 4.8 mph 14.5 mph 48 % 0.0 in
19:00 9.1 °F -1.1 °F 1023.9 in SW 4.8 mph 11.3 mph 49 % 0.0 in
19:15 9.0 °F -0.1 °F 1023.9 in SSW 4.8 mph 16.1 mph 53 % 0.0 in
19:30 8.6 °F -0.7 °F 1023.9 in SW 4.8 mph 17.7 mph 52 % 0.0 in
19:45 8.2 °F -0.5 °F 1023.9 in SW 3.2 mph 12.9 mph 54 % 0.0 in
20:00 7.9 °F -0.8 °F 1023.9 in WSW 3.2 mph 12.9 mph 54 % 0.0 in
20:15 7.7 °F -0.5 °F 1023.9 in SW 3.2 mph 11.3 mph 56 % 0.0 in
20:30 7.4 °F -0.1 °F 1023.9 in SW 3.2 mph 16.1 mph 59 % 0.0 in
20:45 7.2 °F 0.1 °F 1023.9 in SSW 3.2 mph 8.0 mph 61 % 0.0 in
21:00 6.8 °F 0.3 °F 1023.9 in SW 3.2 mph 9.7 mph 63 % 0.0 in
21:22 6.4 °F 0.3 °F 1023.9 in SW 3.2 mph 8.0 mph 65 % 0.0 in
21:30 5.9 °F 0.0 °F 1023.9 in SW 3.2 mph 12.9 mph 66 % 0.0 in
21:45 5.6 °F -0.3 °F 1024.3 in SW 3.2 mph 11.3 mph 66 % 0.0 in
22:00 5.2 °F -0.6 °F 1024.3 in SSW 4.8 mph 11.3 mph 66 % 0.0 in
22:15 4.8 °F -0.6 °F 1024.3 in SSW 3.2 mph 9.7 mph 68 % 0.0 in
22:30 4.4 °F -0.8 °F 1024.3 in SSW 3.2 mph 6.4 mph 69 % 0.0 in
22:45 4.1 °F -0.7 °F 1024.3 in SSW 3.2 mph 6.4 mph 71 % 0.0 in
23:00 3.8 °F -0.9 °F 1024.6 in SW 3.2 mph 8.0 mph 71 % 0.0 in
23:15 3.6 °F -1.0 °F 1024.6 in Calm   4.8 mph 72 % 0.0 in
23:30 3.2 °F -1.2 °F 1024.6 in SW 1.6 mph 8.0 mph 73 % 0.0 in
23:45 2.9 °F -1.3 °F 1024.6 in Calm   6.4 mph 74 % 0.0 in
Esan sääasema
Terveisin Weather Underground - 2.75 mb

Alkuperäinen skripti  Jim McMurry - jmcmurry@mwt.net Sovitettu myös templatelle  Wim van der Kuil - Leuven-Template.eu

Laitteet joita käytämme:

Sääasema
Davis VP2

Sääasemaohjelma
Cumulus

Sääaseman tietokone
Asus EeePC

Palveluntarjoaja
Suncomet

Davis VP2

Cumulus

Asus EeePC

Suncomet